sensor_id;sensor_type;location;lat;lon;timestamp;pressure;altitude;pressure_sealevel;temperature;humidity
1472;BME280;963;42.644;23.336;2023-03-01T00:01:27;94646.72;;;7.49;85.36
1472;BME280;963;42.644;23.336;2023-03-01T00:03:53;94646.13;;;7.31;85.61
1472;BME280;963;42.644;23.336;2023-03-01T00:06:19;94659.06;;;7.61;84.68
1472;BME280;963;42.644;23.336;2023-03-01T00:08:45;94628.44;;;7.61;84.00
1472;BME280;963;42.644;23.336;2023-03-01T00:11:27;94646.06;;;6.86;86.66
1472;BME280;963;42.644;23.336;2023-03-01T00:13:55;94644.78;;;6.50;90.51
1472;BME280;963;42.644;23.336;2023-03-01T00:18:48;94642.31;;;6.24;92.24
1472;BME280;963;42.644;23.336;2023-03-01T00:21:14;94624.72;;;6.13;94.43
1472;BME280;963;42.644;23.336;2023-03-01T00:23:40;94643.84;;;6.25;93.93
1472;BME280;963;42.644;23.336;2023-03-01T00:26:07;94627.97;;;6.10;94.63
1472;BME280;963;42.644;23.336;2023-03-01T00:28:33;94627.56;;;5.90;96.00
1472;BME280;963;42.644;23.336;2023-03-01T00:31:07;94617.44;;;5.98;96.37
1472;BME280;963;42.644;23.336;2023-03-01T00:33:34;94603.34;;;5.81;96.43
1472;BME280;963;42.644;23.336;2023-03-01T00:35:59;94600.00;;;5.72;98.62
1472;BME280;963;42.644;23.336;2023-03-01T00:38:25;94615.16;;;5.79;98.91
1472;BME280;963;42.644;23.336;2023-03-01T00:40:51;94601.94;;;5.84;98.77
1472;BME280;963;42.644;23.336;2023-03-01T00:43:17;94592.13;;;5.89;98.07
1472;BME280;963;42.644;23.336;2023-03-01T00:45:43;94602.03;;;6.05;96.79
1472;BME280;963;42.644;23.336;2023-03-01T00:48:08;94602.06;;;5.87;97.98
1472;BME280;963;42.644;23.336;2023-03-01T00:50:34;94596.31;;;5.73;97.38
1472;BME280;963;42.644;23.336;2023-03-01T00:52:59;94589.97;;;5.45;99.77
1472;BME280;963;42.644;23.336;2023-03-01T00:55:25;94583.44;;;5.68;99.50
1472;BME280;963;42.644;23.336;2023-03-01T00:57:51;94589.22;;;5.82;98.62
1472;BME280;963;42.644;23.336;2023-03-01T01:00:18;94579.41;;;5.79;97.77
1472;BME280;963;42.644;23.336;2023-03-01T01:02:43;94616.28;;;5.69;97.96
1472;BME280;963;42.644;23.336;2023-03-01T01:05:09;94580.66;;;5.73;97.51
1472;BME280;963;42.644;23.336;2023-03-01T01:07:35;94589.09;;;6.08;96.40
1472;BME280;963;42.644;23.336;2023-03-01T01:10:00;94589.28;;;6.33;94.61
1472;BME280;963;42.644;23.336;2023-03-01T01:12:26;94604.47;;;6.10;93.14
1472;BME280;963;42.644;23.336;2023-03-01T01:14:51;94580.13;;;5.97;93.64
1472;BME280;963;42.644;23.336;2023-03-01T01:17:16;94580.38;;;6.04;93.27
1472;BME280;963;42.644;23.336;2023-03-01T01:19:42;94582.94;;;6.13;91.72
1472;BME280;963;42.644;23.336;2023-03-01T01:22:07;94607.84;;;6.31;90.98
1472;BME280;963;42.644;23.336;2023-03-01T01:24:33;94606.59;;;6.58;88.90
1472;BME280;963;42.644;23.336;2023-03-01T01:26:58;94583.19;;;6.82;88.13
1472;BME280;963;42.644;23.336;2023-03-01T01:29:24;94579.63;;;6.87;87.66
1472;BME280;963;42.644;23.336;2023-03-01T01:31:49;94569.63;;;7.01;86.36
1472;BME280;963;42.644;23.336;2023-03-01T01:34:20;94597.34;;;6.61;87.15
1472;BME280;963;42.644;23.336;2023-03-01T01:36:53;94598.88;;;6.82;86.67
1472;BME280;963;42.644;23.336;2023-03-01T01:39:20;94588.25;;;7.00;85.37
1472;BME280;963;42.644;23.336;2023-03-01T01:41:46;94598.13;;;6.61;85.17
1472;BME280;963;42.644;23.336;2023-03-01T01:44:25;94595.97;;;6.42;86.94
1472;BME280;963;42.644;23.336;2023-03-01T01:52:02;94603.81;;;6.42;87.45
1472;BME280;963;42.644;23.336;2023-03-01T01:54:44;94592.47;;;6.92;84.92
1472;BME280;963;42.644;23.336;2023-03-01T01:57:26;94586.78;;;6.57;85.55
1472;BME280;963;42.644;23.336;2023-03-01T01:59:54;94590.28;;;6.40;86.34
1472;BME280;963;42.644;23.336;2023-03-01T02:02:22;94608.25;;;6.63;85.37
1472;BME280;963;42.644;23.336;2023-03-01T02:04:53;94590.66;;;6.72;85.58
1472;BME280;963;42.644;23.336;2023-03-01T02:07:22;94550.13;;;6.24;85.22
1472;BME280;963;42.644;23.336;2023-03-01T02:09:50;94574.59;;;5.99;86.82
1472;BME280;963;42.644;23.336;2023-03-01T02:12:19;94587.75;;;6.02;87.81
1472;BME280;963;42.644;23.336;2023-03-01T02:14:45;94574.28;;;6.21;87.13
1472;BME280;963;42.644;23.336;2023-03-01T02:17:15;94579.66;;;6.45;85.12
1472;BME280;963;42.644;23.336;2023-03-01T02:22:37;94566.38;;;6.30;85.28
1472;BME280;963;42.644;23.336;2023-03-01T02:30:28;94581.66;;;6.19;85.70
1472;BME280;963;42.644;23.336;2023-03-01T02:32:56;94594.44;;;6.41;85.01
1472;BME280;963;42.644;23.336;2023-03-01T02:35:32;94627.41;;;6.25;84.59
1472;BME280;963;42.644;23.336;2023-03-01T02:38:00;94601.84;;;6.31;85.12
1472;BME280;963;42.644;23.336;2023-03-01T02:40:28;94597.44;;;6.02;86.13
1472;BME280;963;42.644;23.336;2023-03-01T02:42:57;94616.03;;;6.00;88.40
1472;BME280;963;42.644;23.336;2023-03-01T02:45:24;94595.16;;;6.00;87.83
1472;BME280;963;42.644;23.336;2023-03-01T02:47:50;94608.16;;;6.09;87.30
1472;BME280;963;42.644;23.336;2023-03-01T02:53:06;94604.59;;;5.75;90.66
1472;BME280;963;42.644;23.336;2023-03-01T02:55:34;94589.84;;;5.79;91.48
1472;BME280;963;42.644;23.336;2023-03-01T02:58:02;94567.53;;;5.61;91.30
1472;BME280;963;42.644;23.336;2023-03-01T03:00:33;94592.00;;;5.77;91.37
1472;BME280;963;42.644;23.336;2023-03-01T03:03:00;94586.25;;;5.63;92.17
1472;BME280;963;42.644;23.336;2023-03-01T03:05:29;94597.72;;;5.71;92.70
1472;BME280;963;42.644;23.336;2023-03-01T03:07:56;94586.25;;;5.63;91.99
1472;BME280;963;42.644;23.336;2023-03-01T03:10:30;94592.47;;;5.32;95.09
1472;BME280;963;42.644;23.336;2023-03-01T03:13:03;94591.69;;;5.41;95.15
1472;BME280;963;42.644;23.336;2023-03-01T03:15:29;94585.22;;;5.47;94.59
1472;BME280;963;42.644;23.336;2023-03-01T03:17:56;94594.53;;;5.56;93.58
1472;BME280;963;42.644;23.336;2023-03-01T03:20:25;94598.25;;;5.47;94.46
1472;BME280;963;42.644;23.336;2023-03-01T03:22:53;94604.94;;;5.65;93.68
1472;BME280;963;42.644;23.336;2023-03-01T03:25:19;94614.63;;;5.56;94.39
1472;BME280;963;42.644;23.336;2023-03-01T03:27:48;94600.00;;;5.72;92.92
1472;BME280;963;42.644;23.336;2023-03-01T03:30:19;94599.59;;;5.53;94.06
1472;BME280;963;42.644;23.336;2023-03-01T03:32:47;94595.16;;;5.53;94.83
1472;BME280;963;42.644;23.336;2023-03-01T03:35:27;94596.94;;;5.70;93.36
1472;BME280;963;42.644;23.336;2023-03-01T03:37:55;94610.09;;;5.82;92.57
1472;BME280;963;42.644;23.336;2023-03-01T03:40:29;94591.88;;;5.74;92.77
1472;BME280;963;42.644;23.336;2023-03-01T03:42:55;94597.91;;;5.57;94.28
1472;BME280;963;42.644;23.336;2023-03-01T03:45:21;94610.03;;;5.61;94.03
1472;BME280;963;42.644;23.336;2023-03-01T03:47:46;94594.38;;;5.61;94.42
1472;BME280;963;42.644;23.336;2023-03-01T03:50:15;94592.53;;;5.53;94.05
1472;BME280;963;42.644;23.336;2023-03-01T03:52:41;94607.75;;;5.60;94.38
1472;BME280;963;42.644;23.336;2023-03-01T03:55:09;94609.47;;;5.85;93.39
1472;BME280;963;42.644;23.336;2023-03-01T03:57:36;94604.09;;;5.90;91.93
1472;BME280;963;42.644;23.336;2023-03-01T04:00:02;94596.09;;;5.95;90.70
1472;BME280;963;42.644;23.336;2023-03-01T04:02:30;94612.28;;;5.72;92.71
1472;BME280;963;42.644;23.336;2023-03-01T04:04:55;94581.16;;;5.67;92.66
1472;BME280;963;42.644;23.336;2023-03-01T04:07:21;94605.22;;;5.72;93.09
1472;BME280;963;42.644;23.336;2023-03-01T04:09:46;94606.84;;;5.85;92.65
1472;BME280;963;42.644;23.336;2023-03-01T04:12:12;94607.28;;;5.87;91.78
1472;BME280;963;42.644;23.336;2023-03-01T04:14:37;94609.91;;;5.96;90.82
1472;BME280;963;42.644;23.336;2023-03-01T04:17:03;94602.16;;;5.70;91.70
1472;BME280;963;42.644;23.336;2023-03-01T04:19:31;94596.13;;;5.78;91.81
1472;BME280;963;42.644;23.336;2023-03-01T04:22:02;94607.13;;;6.01;91.55
1472;BME280;963;42.644;23.336;2023-03-01T04:24:33;94601.78;;;5.98;90.26
1472;BME280;963;42.644;23.336;2023-03-01T04:26:58;94619.22;;;5.68;90.70
1472;BME280;963;42.644;23.336;2023-03-01T04:29:24;94598.22;;;6.23;88.95
1472;BME280;963;42.644;23.336;2023-03-01T04:31:49;94584.50;;;6.35;87.81
1472;BME280;963;42.644;23.336;2023-03-01T04:34:14;94597.97;;;6.16;88.02
1472;BME280;963;42.644;23.336;2023-03-01T04:36:40;94603.75;;;6.01;89.14
1472;BME280;963;42.644;23.336;2023-03-01T04:39:05;94599.22;;;6.10;88.13
1472;BME280;963;42.644;23.336;2023-03-01T04:41:37;94596.69;;;6.22;88.11
1472;BME280;963;42.644;23.336;2023-03-01T04:44:06;94608.91;;;6.09;88.29
1472;BME280;963;42.644;23.336;2023-03-01T04:46:32;94602.28;;;6.12;87.92
1472;BME280;963;42.644;23.336;2023-03-01T04:48:57;94595.66;;;6.14;87.80
1472;BME280;963;42.644;23.336;2023-03-01T04:51:23;94610.31;;;5.69;90.68
1472;BME280;963;42.644;23.336;2023-03-01T04:53:48;94594.84;;;6.02;90.49
1472;BME280;963;42.644;23.336;2023-03-01T04:56:15;94602.25;;;5.91;90.28
1472;BME280;963;42.644;23.336;2023-03-01T04:58:40;94613.69;;;6.07;89.67
1472;BME280;963;42.644;23.336;2023-03-01T05:01:18;94596.81;;;6.05;88.16
1472;BME280;963;42.644;23.336;2023-03-01T05:03:46;94568.63;;;5.89;89.15
1472;BME280;963;42.644;23.336;2023-03-01T05:06:12;94598.72;;;5.95;89.84
1472;BME280;963;42.644;23.336;2023-03-01T05:08:39;94602.66;;;6.02;89.66
1472;BME280;963;42.644;23.336;2023-03-01T05:11:04;94589.56;;;5.72;90.34
1472;BME280;963;42.644;23.336;2023-03-01T05:13:30;94612.22;;;5.98;89.73
1472;BME280;963;42.644;23.336;2023-03-01T05:15:59;94607.22;;;5.75;90.59
1472;BME280;963;42.644;23.336;2023-03-01T05:18:26;94618.28;;;5.72;90.91
1472;BME280;963;42.644;23.336;2023-03-01T05:20:55;94600.59;;;5.78;90.34
1472;BME280;963;42.644;23.336;2023-03-01T05:23:24;94619.81;;;5.73;90.74
1472;BME280;963;42.644;23.336;2023-03-01T05:25:49;94600.47;;;5.74;90.50
1472;BME280;963;42.644;23.336;2023-03-01T05:28:18;94603.44;;;5.55;91.75
1472;BME280;963;42.644;23.336;2023-03-01T05:30:44;94606.03;;;5.64;91.30
1472;BME280;963;42.644;23.336;2023-03-01T05:33:10;94605.19;;;5.81;88.94
1472;BME280;963;42.644;23.336;2023-03-01T05:35:39;94593.84;;;5.77;88.80
1472;BME280;963;42.644;23.336;2023-03-01T05:38:06;94624.16;;;5.60;90.28
1472;BME280;963;42.644;23.336;2023-03-01T05:40:33;94605.50;;;5.79;89.22
1472;BME280;963;42.644;23.336;2023-03-01T05:42:59;94604.78;;;5.70;89.47
1472;BME280;963;42.644;23.336;2023-03-01T05:45:25;94617.19;;;5.73;87.36
1472;BME280;963;42.644;23.336;2023-03-01T05:47:51;94594.97;;;5.67;88.21
1472;BME280;963;42.644;23.336;2023-03-01T05:50:25;94597.13;;;5.65;88.37
1472;BME280;963;42.644;23.336;2023-03-01T05:52:56;94609.91;;;5.58;88.63
1472;BME280;963;42.644;23.336;2023-03-01T05:55:23;94609.69;;;5.72;88.13
1472;BME280;963;42.644;23.336;2023-03-01T05:57:49;94627.69;;;5.56;89.91
1472;BME280;963;42.644;23.336;2023-03-01T06:00:17;94615.56;;;5.60;89.14
1472;BME280;963;42.644;23.336;2023-03-01T06:02:43;94640.88;;;5.59;89.34
1472;BME280;963;42.644;23.336;2023-03-01T06:05:11;94623.53;;;5.55;89.54
1472;BME280;963;42.644;23.336;2023-03-01T06:07:37;94626.59;;;5.65;87.93
1472;BME280;963;42.644;23.336;2023-03-01T06:10:04;94624.72;;;5.75;88.60
1472;BME280;963;42.644;23.336;2023-03-01T06:12:31;94661.03;;;5.88;86.84
1472;BME280;963;42.644;23.336;2023-03-01T06:14:57;94635.28;;;5.78;86.45
1472;BME280;963;42.644;23.336;2023-03-01T06:17:22;94646.00;;;5.85;85.70
1472;BME280;963;42.644;23.336;2023-03-01T06:19:47;94656.50;;;5.68;86.90
1472;BME280;963;42.644;23.336;2023-03-01T06:22:13;94639.78;;;5.69;87.44
1472;BME280;963;42.644;23.336;2023-03-01T06:24:38;94642.38;;;5.69;87.29
1472;BME280;963;42.644;23.336;2023-03-01T06:27:04;94664.72;;;5.87;86.12
1472;BME280;963;42.644;23.336;2023-03-01T06:29:29;94641.06;;;6.01;86.50
1472;BME280;963;42.644;23.336;2023-03-01T06:31:55;94631.19;;;6.07;84.80
1472;BME280;963;42.644;23.336;2023-03-01T06:34:20;94622.66;;;5.98;83.39
1472;BME280;963;42.644;23.336;2023-03-01T06:36:47;94642.81;;;6.18;83.89
1472;BME280;963;42.644;23.336;2023-03-01T06:39:12;94628.16;;;6.05;83.44
1472;BME280;963;42.644;23.336;2023-03-01T06:41:37;94644.25;;;6.36;82.83
1472;BME280;963;42.644;23.336;2023-03-01T06:44:03;94644.97;;;6.45;80.78
1472;BME280;963;42.644;23.336;2023-03-01T06:46:28;94644.59;;;6.26;81.33
1472;BME280;963;42.644;23.336;2023-03-01T06:48:54;94641.78;;;6.10;82.99
1472;BME280;963;42.644;23.336;2023-03-01T06:51:19;94653.16;;;6.06;83.25
1472;BME280;963;42.644;23.336;2023-03-01T06:53:46;94637.69;;;6.01;84.93
1472;BME280;963;42.644;23.336;2023-03-01T06:56:11;94642.81;;;6.18;84.93
1472;BME280;963;42.644;23.336;2023-03-01T06:58:37;94650.25;;;6.07;85.74
1472;BME280;963;42.644;23.336;2023-03-01T07:01:06;94643.44;;;6.15;85.45
1472;BME280;963;42.644;23.336;2023-03-01T07:03:32;94646.00;;;6.23;85.78
1472;BME280;963;42.644;23.336;2023-03-01T07:05:57;94652.25;;;6.31;86.20
1472;BME280;963;42.644;23.336;2023-03-01T07:08:23;94638.03;;;6.49;84.50
1472;BME280;963;42.644;23.336;2023-03-01T07:10:48;94654.06;;;6.10;85.92
1472;BME280;963;42.644;23.336;2023-03-01T07:13:19;94648.13;;;6.30;85.29
1472;BME280;963;42.644;23.336;2023-03-01T07:15:44;94631.66;;;6.38;85.46
1472;BME280;963;42.644;23.336;2023-03-01T07:18:10;94635.72;;;6.69;83.99
1472;BME280;963;42.644;23.336;2023-03-01T07:20:35;94638.72;;;6.79;82.96
1472;BME280;963;42.644;23.336;2023-03-01T07:23:01;94642.00;;;6.76;84.08
1472;BME280;963;42.644;23.336;2023-03-01T07:25:26;94638.09;;;6.62;82.72
1472;BME280;963;42.644;23.336;2023-03-01T07:27:52;94627.97;;;6.31;84.57
1472;BME280;963;42.644;23.336;2023-03-01T07:30:18;94628.28;;;6.29;83.55
1472;BME280;963;42.644;23.336;2023-03-01T07:32:43;94619.84;;;6.32;82.99
1472;BME280;963;42.644;23.336;2023-03-01T07:35:10;94617.84;;;6.29;82.67
1472;BME280;963;42.644;23.336;2023-03-01T07:37:35;94627.75;;;6.44;82.61
1472;BME280;963;42.644;23.336;2023-03-01T07:40:01;94642.13;;;6.80;81.98
1472;BME280;963;42.644;23.336;2023-03-01T07:42:26;94635.34;;;6.79;81.21
1472;BME280;963;42.644;23.336;2023-03-01T07:44:51;94661.06;;;6.77;81.04
1472;BME280;963;42.644;23.336;2023-03-01T07:47:17;94627.56;;;6.91;80.21
1472;BME280;963;42.644;23.336;2023-03-01T07:49:42;94630.78;;;6.76;79.66
1472;BME280;963;42.644;23.336;2023-03-01T07:52:10;94638.28;;;6.36;81.34
1472;BME280;963;42.644;23.336;2023-03-01T07:54:36;94611.50;;;6.59;80.82
1472;BME280;963;42.644;23.336;2023-03-01T07:57:01;94607.94;;;6.85;80.02
1472;BME280;963;42.644;23.336;2023-03-01T07:59:27;94598.97;;;6.74;80.52
1472;BME280;963;42.644;23.336;2023-03-01T08:01:57;94618.50;;;6.68;80.93
1472;BME280;963;42.644;23.336;2023-03-01T08:04:23;94628.06;;;6.84;80.27
1472;BME280;963;42.644;23.336;2023-03-01T08:06:50;94611.88;;;6.91;80.08
1472;BME280;963;42.644;23.336;2023-03-01T08:09:16;94623.84;;;6.92;78.92
1472;BME280;963;42.644;23.336;2023-03-01T08:11:41;94606.75;;;6.95;79.18
1472;BME280;963;42.644;23.336;2023-03-01T08:14:07;94610.63;;;6.76;78.19
1472;BME280;963;42.644;23.336;2023-03-01T08:16:33;94604.50;;;6.72;77.62
1472;BME280;963;42.644;23.336;2023-03-01T08:19:04;94601.38;;;6.37;78.25
1472;BME280;963;42.644;23.336;2023-03-01T08:21:30;94593.16;;;6.47;79.62
1472;BME280;963;42.644;23.336;2023-03-01T08:23:55;94618.13;;;6.36;79.38
1472;BME280;963;42.644;23.336;2023-03-01T08:26:21;94631.91;;;6.66;78.77
1472;BME280;963;42.644;23.336;2023-03-01T08:28:47;94609.22;;;6.58;78.93
1472;BME280;963;42.644;23.336;2023-03-01T08:31:26;94612.03;;;6.32;79.22
1472;BME280;963;42.644;23.336;2023-03-01T08:33:54;94603.84;;;6.54;79.21
1472;BME280;963;42.644;23.336;2023-03-01T08:36:25;94618.38;;;6.43;78.97
1472;BME280;963;42.644;23.336;2023-03-01T08:38:51;94598.88;;;6.62;78.77
1472;BME280;963;42.644;23.336;2023-03-01T08:41:16;94616.16;;;6.75;78.84
1472;BME280;963;42.644;23.336;2023-03-01T08:43:42;94604.47;;;6.93;78.00
1472;BME280;963;42.644;23.336;2023-03-01T08:46:07;94624.50;;;6.89;77.50
1472;BME280;963;42.644;23.336;2023-03-01T08:48:33;94612.09;;;6.98;76.92
1472;BME280;963;42.644;23.336;2023-03-01T08:51:12;94595.41;;;7.11;76.29
1472;BME280;963;42.644;23.336;2023-03-01T08:53:38;94618.06;;;7.07;76.56
1472;BME280;963;42.644;23.336;2023-03-01T08:56:04;94614.53;;;7.03;76.49
1472;BME280;963;42.644;23.336;2023-03-01T08:58:30;94609.28;;;7.03;77.08
1472;BME280;963;42.644;23.336;2023-03-01T09:00:55;94629.31;;;6.99;76.89
1472;BME280;963;42.644;23.336;2023-03-01T09:03:24;94604.47;;;6.93;76.16
1472;BME280;963;42.644;23.336;2023-03-01T09:05:50;94613.84;;;6.94;77.13
1472;BME280;963;42.644;23.336;2023-03-01T09:08:17;94614.53;;;7.03;76.49
1472;BME280;963;42.644;23.336;2023-03-01T09:10:43;94609.81;;;7.30;76.09
1472;BME280;963;42.644;23.336;2023-03-01T09:13:08;94606.88;;;6.98;76.36
1472;BME280;963;42.644;23.336;2023-03-01T09:15:36;94614.28;;;6.96;76.35
1472;BME280;963;42.644;23.336;2023-03-01T09:18:02;94610.41;;;6.81;77.29
1472;BME280;963;42.644;23.336;2023-03-01T09:20:27;94597.31;;;7.02;76.29
1472;BME280;963;42.644;23.336;2023-03-01T09:22:53;94609.03;;;7.17;76.62
1472;BME280;963;42.644;23.336;2023-03-01T09:25:18;94607.44;;;7.37;75.42
1472;BME280;963;42.644;23.336;2023-03-01T09:27:44;94586.31;;;7.54;75.50
1472;BME280;963;42.644;23.336;2023-03-01T09:30:09;94619.38;;;7.71;74.75
1472;BME280;963;42.644;23.336;2023-03-01T09:32:35;94598.09;;;7.72;74.77
1472;BME280;963;42.644;23.336;2023-03-01T09:35:00;94605.75;;;7.77;73.52
1472;BME280;963;42.644;23.336;2023-03-01T09:37:28;94611.25;;;7.39;74.19
1472;BME280;963;42.644;23.336;2023-03-01T09:39:54;94609.16;;;7.33;74.30
1472;BME280;963;42.644;23.336;2023-03-01T09:42:19;94594.38;;;7.04;75.72
1472;BME280;963;42.644;23.336;2023-03-01T09:44:52;94602.53;;;7.02;76.65
1472;BME280;963;42.644;23.336;2023-03-01T09:47:29;94608.13;;;7.46;76.20
1472;BME280;963;42.644;23.336;2023-03-01T09:50:06;94589.22;;;7.40;74.37
1472;BME280;963;42.644;23.336;2023-03-01T09:55:00;94580.88;;;7.47;75.26
1472;BME280;963;42.644;23.336;2023-03-01T09:57:36;94602.47;;;7.56;75.81
1472;BME280;963;42.644;23.336;2023-03-01T10:07:54;94566.16;;;7.55;75.48
1472;BME280;963;42.644;23.336;2023-03-01T10:10:36;94555.13;;;7.61;74.54
1472;BME280;963;42.644;23.336;2023-03-01T10:13:33;94562.13;;;7.57;75.10
1472;BME280;963;42.644;23.336;2023-03-01T10:16:10;94578.06;;;7.89;74.13
1472;BME280;963;42.644;23.336;2023-03-01T10:18:37;94571.50;;;7.46;75.72
1472;BME280;963;42.644;23.336;2023-03-01T10:23:35;94562.66;;;7.87;73.64
1472;BME280;963;42.644;23.336;2023-03-01T10:29:02;94545.75;;;7.48;75.35
1472;BME280;963;42.644;23.336;2023-03-01T10:31:46;94564.63;;;7.53;75.23
1472;BME280;963;42.644;23.336;2023-03-01T10:34:30;94571.06;;;7.44;75.85
1472;BME280;963;42.644;23.336;2023-03-01T10:37:01;94547.69;;;7.39;76.17
1472;BME280;963;42.644;23.336;2023-03-01T10:39:26;94548.88;;;7.29;75.89
1472;BME280;963;42.644;23.336;2023-03-01T10:42:02;94564.69;;;7.33;75.50
1472;BME280;963;42.644;23.336;2023-03-01T10:47:03;94539.28;;;7.33;76.38
1472;BME280;963;42.644;23.336;2023-03-01T10:49:29;94541.19;;;7.45;75.73
1472;BME280;963;42.644;23.336;2023-03-01T10:51:54;94538.00;;;7.64;76.07
1472;BME280;963;42.644;23.336;2023-03-01T10:54:27;94551.31;;;7.95;74.47
1472;BME280;963;42.644;23.336;2023-03-01T10:57:02;94523.06;;;7.52;75.34
1472;BME280;963;42.644;23.336;2023-03-01T10:59:36;94546.97;;;7.87;74.70
1472;BME280;963;42.644;23.336;2023-03-01T11:02:18;94556.63;;;8.11;74.03
1472;BME280;963;42.644;23.336;2023-03-01T11:05:39;94527.06;;;7.98;73.59
1472;BME280;963;42.644;23.336;2023-03-01T11:07:49;94547.63;;;8.49;72.85
1472;BME280;963;42.644;23.336;2023-03-01T11:10:21;94538.25;;;8.75;71.70
1472;BME280;963;42.644;23.336;2023-03-01T11:12:47;94534.66;;;8.28;72.11
1472;BME280;963;42.644;23.336;2023-03-01T11:15:25;94549.78;;;7.70;74.58
1472;BME280;963;42.644;23.336;2023-03-01T11:17:52;94530.91;;;7.76;75.16
1472;BME280;963;42.644;23.336;2023-03-01T11:20:34;94539.53;;;7.52;75.65
1472;BME280;963;42.644;23.336;2023-03-01T11:23:06;94552.75;;;7.80;74.81
1472;BME280;963;42.644;23.336;2023-03-01T11:25:36;94544.28;;;8.11;74.42
1472;BME280;963;42.644;23.336;2023-03-01T11:28:05;94556.41;;;8.28;73.75
1472;BME280;963;42.644;23.336;2023-03-01T11:30:36;94553.38;;;8.02;74.00
1472;BME280;963;42.644;23.336;2023-03-01T11:33:13;94546.72;;;8.04;73.82
1472;BME280;963;42.644;23.336;2023-03-01T11:35:45;94547.69;;;8.00;74.04
1472;BME280;963;42.644;23.336;2023-03-01T11:38:22;94524.75;;;8.33;74.29
1472;BME280;963;42.644;23.336;2023-03-01T12:00:05;94503.63;;;7.90;72.66
1472;BME280;963;42.644;23.336;2023-03-01T12:05:55;94508.75;;;7.74;73.63
1472;BME280;963;42.644;23.336;2023-03-01T12:17:15;94498.31;;;8.66;71.39
1472;BME280;963;42.644;23.336;2023-03-01T12:19:51;94494.94;;;8.54;71.27
1472;BME280;963;42.644;23.336;2023-03-01T12:25:04;94491.78;;;8.20;71.89
1472;BME280;963;42.644;23.336;2023-03-01T12:30:29;94495.13;;;8.33;71.77
1472;BME280;963;42.644;23.336;2023-03-01T12:33:17;94478.38;;;8.09;71.04
1472;BME280;963;42.644;23.336;2023-03-01T12:38:41;94479.97;;;8.26;71.08
1472;BME280;963;42.644;23.336;2023-03-01T12:41:27;94476.00;;;8.44;71.33
1472;BME280;963;42.644;23.336;2023-03-01T12:49:49;94497.28;;;8.55;70.09
1472;BME280;963;42.644;23.336;2023-03-01T12:52:27;94488.00;;;8.45;70.69
1472;BME280;963;42.644;23.336;2023-03-01T12:54:57;94475.50;;;8.55;70.46
1472;BME280;963;42.644;23.336;2023-03-01T12:57:30;94477.31;;;8.66;70.21
1472;BME280;963;42.644;23.336;2023-03-01T13:02:54;94447.66;;;8.34;70.25
1472;BME280;963;42.644;23.336;2023-03-01T13:05:29;94473.09;;;8.62;70.49
1472;BME280;963;42.644;23.336;2023-03-01T13:11:04;94485.03;;;8.47;71.20
1472;BME280;963;42.644;23.336;2023-03-01T13:13:31;94475.59;;;8.30;71.71
1472;BME280;963;42.644;23.336;2023-03-01T13:15:57;94475.31;;;8.48;70.92
1472;BME280;963;42.644;23.336;2023-03-01T13:20:51;94479.72;;;8.31;72.01
1472;BME280;963;42.644;23.336;2023-03-01T13:28:47;94479.88;;;7.82;73.83
1472;BME280;963;42.644;23.336;2023-03-01T13:46:52;94489.47;;;7.66;76.41
1472;BME280;963;42.644;23.336;2023-03-01T13:49:21;94481.41;;;7.59;76.85
1472;BME280;963;42.644;23.336;2023-03-01T13:51:51;94500.50;;;7.60;76.53
1472;BME280;963;42.644;23.336;2023-03-01T13:54:32;94472.66;;;7.79;75.03
1472;BME280;963;42.644;23.336;2023-03-01T13:57:00;94471.69;;;7.84;75.63
1472;BME280;963;42.644;23.336;2023-03-01T13:59:26;94450.69;;;7.96;75.90
1472;BME280;963;42.644;23.336;2023-03-01T14:01:59;94477.84;;;8.04;75.60
1472;BME280;963;42.644;23.336;2023-03-01T14:04:30;94456.63;;;7.81;75.74
1472;BME280;963;42.644;23.336;2023-03-01T14:07:19;94461.84;;;7.93;75.89
1472;BME280;963;42.644;23.336;2023-03-01T14:09:48;94465.31;;;7.97;75.95
1472;BME280;963;42.644;23.336;2023-03-01T14:15:04;94468.66;;;8.10;74.73
1472;BME280;963;42.644;23.336;2023-03-01T14:20:25;94458.50;;;8.08;74.79
1472;BME280;963;42.644;23.336;2023-03-01T14:23:02;94451.66;;;8.04;75.17
1472;BME280;963;42.644;23.336;2023-03-01T14:25:35;94463.13;;;8.39;74.00
1472;BME280;963;42.644;23.336;2023-03-01T14:28:15;94471.50;;;8.45;73.73
1472;BME280;963;42.644;23.336;2023-03-01T14:30:47;94460.88;;;8.54;73.05
1472;BME280;963;42.644;23.336;2023-03-01T14:33:30;94453.50;;;8.43;73.17
1472;BME280;963;42.644;23.336;2023-03-01T14:36:10;94457.66;;;8.32;73.90
1472;BME280;963;42.644;23.336;2023-03-01T14:38:42;94467.69;;;8.42;73.71
1472;BME280;963;42.644;23.336;2023-03-01T14:41:11;94452.66;;;8.39;73.41
1472;BME280;963;42.644;23.336;2023-03-01T14:43:43;94458.69;;;8.15;73.75
1472;BME280;963;42.644;23.336;2023-03-01T14:46:35;94489.66;;;7.98;74.92
1472;BME280;963;42.644;23.336;2023-03-01T14:49:14;94465.28;;;7.57;77.06
1472;BME280;963;42.644;23.336;2023-03-01T14:51:42;94470.28;;;7.50;77.83
1472;BME280;963;42.644;23.336;2023-03-01T14:55:15;94467.91;;;7.45;77.81
1472;BME280;963;42.644;23.336;2023-03-01T14:57:26;94469.31;;;7.30;78.95
1472;BME280;963;42.644;23.336;2023-03-01T15:00:01;94483.59;;;7.45;78.29
1472;BME280;963;42.644;23.336;2023-03-01T15:02:31;94470.06;;;7.18;78.31
1472;BME280;963;42.644;23.336;2023-03-01T15:05:03;94467.22;;;7.24;79.02
1472;BME280;963;42.644;23.336;2023-03-01T15:07:35;94457.97;;;7.14;79.28
1472;BME280;963;42.644;23.336;2023-03-01T15:10:04;94451.09;;;7.34;79.73
1472;BME280;963;42.644;23.336;2023-03-01T15:12:40;94443.56;;;7.32;79.48
1472;BME280;963;42.644;23.336;2023-03-01T15:15:22;94446.41;;;7.51;79.24
1472;BME280;963;42.644;23.336;2023-03-01T15:17:58;94451.69;;;7.79;78.68
1472;BME280;963;42.644;23.336;2023-03-01T15:20:26;94457.16;;;7.74;77.73
1472;BME280;963;42.644;23.336;2023-03-01T15:22:53;94463.53;;;7.49;78.31
1472;BME280;963;42.644;23.336;2023-03-01T15:25:23;94438.91;;;7.26;79.69
1472;BME280;963;42.644;23.336;2023-03-01T15:27:50;94443.47;;;7.29;80.20
1472;BME280;963;42.644;23.336;2023-03-01T15:32:44;94463.53;;;7.12;81.26
1472;BME280;963;42.644;23.336;2023-03-01T15:35:33;94443.91;;;7.18;81.36
1472;BME280;963;42.644;23.336;2023-03-01T15:38:00;94438.22;;;7.04;81.31
1472;BME280;963;42.644;23.336;2023-03-01T15:40:28;94456.94;;;6.82;82.89
1472;BME280;963;42.644;23.336;2023-03-01T15:43:01;94444.53;;;6.79;82.78